sensor_id;sensor_type;location;lat;lon;timestamp;P1;durP1;ratioP1;P2;durP2;ratioP2
79759;SDS011;69248;42.138;24.742;2023-04-25T00:01:24;6.37;;;3.72;;
79759;SDS011;69248;42.138;24.742;2023-04-25T00:03:52;6.80;;;3.20;;
79759;SDS011;69248;42.138;24.742;2023-04-25T00:06:20;4.58;;;4.17;;
79759;SDS011;69248;42.138;24.742;2023-04-25T00:08:49;6.80;;;3.58;;
79759;SDS011;69248;42.138;24.742;2023-04-25T00:11:17;4.58;;;3.47;;
79759;SDS011;69248;42.138;24.742;2023-04-25T00:13:44;3.85;;;3.35;;
79759;SDS011;69248;42.138;24.742;2023-04-25T00:16:12;3.52;;;2.90;;
79759;SDS011;69248;42.138;24.742;2023-04-25T00:18:41;2.80;;;2.47;;
79759;SDS011;69248;42.138;24.742;2023-04-25T00:21:09;11.88;;;3.30;;
79759;SDS011;69248;42.138;24.742;2023-04-25T00:23:37;6.28;;;2.37;;
79759;SDS011;69248;42.138;24.742;2023-04-25T00:26:05;4.50;;;2.65;;
79759;SDS011;69248;42.138;24.742;2023-04-25T00:28:33;4.60;;;2.42;;
79759;SDS011;69248;42.138;24.742;2023-04-25T00:31:00;2.92;;;2.65;;
79759;SDS011;69248;42.138;24.742;2023-04-25T00:33:28;5.62;;;2.95;;
79759;SDS011;69248;42.138;24.742;2023-04-25T00:35:56;4.40;;;2.80;;
79759;SDS011;69248;42.138;24.742;2023-04-25T00:38:23;3.85;;;2.77;;
79759;SDS011;69248;42.138;24.742;2023-04-25T00:40:51;4.25;;;3.20;;
79759;SDS011;69248;42.138;24.742;2023-04-25T00:43:18;4.55;;;2.77;;
79759;SDS011;69248;42.138;24.742;2023-04-25T00:45:46;5.83;;;3.35;;
79759;SDS011;69248;42.138;24.742;2023-04-25T00:48:16;4.42;;;3.10;;
79759;SDS011;69248;42.138;24.742;2023-04-25T00:50:54;3.17;;;2.87;;
79759;SDS011;69248;42.138;24.742;2023-04-25T00:53:24;5.60;;;3.17;;
79759;SDS011;69248;42.138;24.742;2023-04-25T00:55:53;3.20;;;2.90;;
79759;SDS011;69248;42.138;24.742;2023-04-25T00:58:20;3.25;;;2.95;;
79759;SDS011;69248;42.138;24.742;2023-04-25T01:00:49;6.33;;;3.22;;
79759;SDS011;69248;42.138;24.742;2023-04-25T01:03:18;6.33;;;3.52;;
79759;SDS011;69248;42.138;24.742;2023-04-25T01:05:46;3.27;;;2.95;;
79759;SDS011;69248;42.138;24.742;2023-04-25T01:08:14;5.12;;;3.87;;
79759;SDS011;69248;42.138;24.742;2023-04-25T01:10:41;4.95;;;3.60;;
79759;SDS011;69248;42.138;24.742;2023-04-25T01:13:09;3.72;;;3.20;;
79759;SDS011;69248;42.138;24.742;2023-04-25T01:15:37;5.62;;;3.87;;
79759;SDS011;69248;42.138;24.742;2023-04-25T01:18:04;3.02;;;2.72;;
79759;SDS011;69248;42.138;24.742;2023-04-25T01:20:33;4.15;;;3.55;;
79759;SDS011;69248;42.138;24.742;2023-04-25T01:23:00;4.35;;;2.75;;
79759;SDS011;69248;42.138;24.742;2023-04-25T01:25:29;4.60;;;2.70;;
79759;SDS011;69248;42.138;24.742;2023-04-25T01:27:57;5.03;;;3.20;;
79759;SDS011;69248;42.138;24.742;2023-04-25T01:30:26;4.60;;;3.77;;
79759;SDS011;69248;42.138;24.742;2023-04-25T01:32:56;4.70;;;3.85;;
79759;SDS011;69248;42.138;24.742;2023-04-25T01:35:25;3.58;;;3.02;;
79759;SDS011;69248;42.138;24.742;2023-04-25T01:37:53;4.42;;;3.12;;
79759;SDS011;69248;42.138;24.742;2023-04-25T01:40:21;3.52;;;3.12;;
79759;SDS011;69248;42.138;24.742;2023-04-25T01:42:50;6.50;;;4.25;;
79759;SDS011;69248;42.138;24.742;2023-04-25T01:45:18;13.28;;;4.60;;
79759;SDS011;69248;42.138;24.742;2023-04-25T01:47:46;4.62;;;4.22;;
79759;SDS011;69248;42.138;24.742;2023-04-25T01:50:16;6.97;;;5.25;;
79759;SDS011;69248;42.138;24.742;2023-04-25T01:52:44;5.40;;;4.78;;
79759;SDS011;69248;42.138;24.742;2023-04-25T01:55:12;6.85;;;6.17;;
79759;SDS011;69248;42.138;24.742;2023-04-25T01:57:39;6.58;;;5.37;;
79759;SDS011;69248;42.138;24.742;2023-04-25T02:00:07;9.10;;;6.75;;
79759;SDS011;69248;42.138;24.742;2023-04-25T02:02:35;8.05;;;6.87;;
79759;SDS011;69248;42.138;24.742;2023-04-25T02:05:03;11.97;;;7.87;;
79759;SDS011;69248;42.138;24.742;2023-04-25T02:07:31;8.33;;;6.10;;
79759;SDS011;69248;42.138;24.742;2023-04-25T02:09:59;6.83;;;6.15;;
79759;SDS011;69248;42.138;24.742;2023-04-25T02:12:27;7.45;;;6.65;;
79759;SDS011;69248;42.138;24.742;2023-04-25T02:14:55;12.75;;;7.22;;
79759;SDS011;69248;42.138;24.742;2023-04-25T02:17:23;8.65;;;6.17;;
79759;SDS011;69248;42.138;24.742;2023-04-25T02:19:50;10.15;;;6.37;;
79759;SDS011;69248;42.138;24.742;2023-04-25T02:22:18;7.20;;;6.42;;
79759;SDS011;69248;42.138;24.742;2023-04-25T02:24:46;7.00;;;5.95;;
79759;SDS011;69248;42.138;24.742;2023-04-25T02:27:13;7.30;;;6.03;;
79759;SDS011;69248;42.138;24.742;2023-04-25T02:29:41;5.92;;;5.33;;
79759;SDS011;69248;42.138;24.742;2023-04-25T02:32:08;6.12;;;5.40;;
79759;SDS011;69248;42.138;24.742;2023-04-25T02:34:36;9.40;;;6.72;;
79759;SDS011;69248;42.138;24.742;2023-04-25T02:37:03;6.90;;;6.20;;
79759;SDS011;69248;42.138;24.742;2023-04-25T02:39:31;8.63;;;6.35;;
79759;SDS011;69248;42.138;24.742;2023-04-25T02:41:58;7.40;;;6.55;;
79759;SDS011;69248;42.138;24.742;2023-04-25T02:44:26;6.53;;;5.87;;
79759;SDS011;69248;42.138;24.742;2023-04-25T02:46:54;5.92;;;5.35;;
79759;SDS011;69248;42.138;24.742;2023-04-25T02:49:21;7.03;;;5.60;;
79759;SDS011;69248;42.138;24.742;2023-04-25T02:51:49;11.12;;;7.55;;
79759;SDS011;69248;42.138;24.742;2023-04-25T02:54:16;10.08;;;6.50;;
79759;SDS011;69248;42.138;24.742;2023-04-25T02:56:44;9.30;;;8.30;;
79759;SDS011;69248;42.138;24.742;2023-04-25T02:59:11;13.72;;;9.90;;
79759;SDS011;69248;42.138;24.742;2023-04-25T03:01:39;12.82;;;10.08;;
79759;SDS011;69248;42.138;24.742;2023-04-25T03:04:06;16.57;;;11.22;;
79759;SDS011;69248;42.138;24.742;2023-04-25T03:06:34;13.60;;;10.32;;
79759;SDS011;69248;42.138;24.742;2023-04-25T03:09:01;9.70;;;8.70;;
79759;SDS011;69248;42.138;24.742;2023-04-25T03:11:30;11.63;;;8.80;;
79759;SDS011;69248;42.138;24.742;2023-04-25T03:13:57;12.23;;;9.38;;
79759;SDS011;69248;42.138;24.742;2023-04-25T03:16:25;10.15;;;8.03;;
79759;SDS011;69248;42.138;24.742;2023-04-25T03:18:52;14.90;;;9.18;;
79759;SDS011;69248;42.138;24.742;2023-04-25T03:21:20;11.05;;;8.68;;
79759;SDS011;69248;42.138;24.742;2023-04-25T03:23:47;9.00;;;8.00;;
79759;SDS011;69248;42.138;24.742;2023-04-25T03:26:15;10.13;;;9.00;;
79759;SDS011;69248;42.138;24.742;2023-04-25T03:28:42;9.60;;;8.58;;
79759;SDS011;69248;42.138;24.742;2023-04-25T03:31:10;14.30;;;9.00;;
79759;SDS011;69248;42.138;24.742;2023-04-25T03:33:37;10.85;;;8.03;;
79759;SDS011;69248;42.138;24.742;2023-04-25T03:36:05;9.05;;;8.13;;
79759;SDS011;69248;42.138;24.742;2023-04-25T03:38:33;10.13;;;8.20;;
79759;SDS011;69248;42.138;24.742;2023-04-25T03:41:01;9.58;;;6.90;;
79759;SDS011;69248;42.138;24.742;2023-04-25T03:43:28;10.25;;;8.58;;
79759;SDS011;69248;42.138;24.742;2023-04-25T03:45:56;10.88;;;8.13;;
79759;SDS011;69248;42.138;24.742;2023-04-25T03:48:25;11.63;;;8.20;;
79759;SDS011;69248;42.138;24.742;2023-04-25T03:50:53;10.38;;;7.42;;
79759;SDS011;69248;42.138;24.742;2023-04-25T03:53:21;8.75;;;7.85;;
79759;SDS011;69248;42.138;24.742;2023-04-25T03:55:48;11.18;;;8.88;;
79759;SDS011;69248;42.138;24.742;2023-04-25T03:58:16;14.40;;;8.20;;
79759;SDS011;69248;42.138;24.742;2023-04-25T04:00:44;10.35;;;8.63;;
79759;SDS011;69248;42.138;24.742;2023-04-25T04:03:11;8.85;;;6.97;;
79759;SDS011;69248;42.138;24.742;2023-04-25T04:05:39;18.85;;;11.20;;
79759;SDS011;69248;42.138;24.742;2023-04-25T04:08:06;8.40;;;7.15;;
79759;SDS011;69248;42.138;24.742;2023-04-25T04:10:34;10.10;;;7.78;;
79759;SDS011;69248;42.138;24.742;2023-04-25T04:13:01;11.45;;;9.83;;
79759;SDS011;69248;42.138;24.742;2023-04-25T04:15:29;16.17;;;10.95;;
79759;SDS011;69248;42.138;24.742;2023-04-25T04:17:58;9.73;;;7.53;;
79759;SDS011;69248;42.138;24.742;2023-04-25T04:20:28;15.20;;;12.30;;
79759;SDS011;69248;42.138;24.742;2023-04-25T04:22:58;12.88;;;9.18;;
79759;SDS011;69248;42.138;24.742;2023-04-25T04:25:26;15.50;;;10.53;;
79759;SDS011;69248;42.138;24.742;2023-04-25T04:27:54;15.10;;;10.72;;
79759;SDS011;69248;42.138;24.742;2023-04-25T04:30:22;14.68;;;9.40;;
79759;SDS011;69248;42.138;24.742;2023-04-25T04:32:51;16.05;;;11.63;;
79759;SDS011;69248;42.138;24.742;2023-04-25T04:35:18;13.93;;;10.05;;
79759;SDS011;69248;42.138;24.742;2023-04-25T04:37:46;9.85;;;7.87;;
79759;SDS011;69248;42.138;24.742;2023-04-25T04:40:14;15.83;;;8.95;;
79759;SDS011;69248;42.138;24.742;2023-04-25T04:42:42;12.28;;;9.35;;
79759;SDS011;69248;42.138;24.742;2023-04-25T04:45:11;21.07;;;11.68;;
79759;SDS011;69248;42.138;24.742;2023-04-25T04:47:39;15.88;;;11.00;;
79759;SDS011;69248;42.138;24.742;2023-04-25T04:50:07;10.20;;;9.08;;
79759;SDS011;69248;42.138;24.742;2023-04-25T04:52:36;12.43;;;9.73;;
79759;SDS011;69248;42.138;24.742;2023-04-25T04:55:04;19.65;;;10.98;;
79759;SDS011;69248;42.138;24.742;2023-04-25T04:57:34;13.83;;;10.60;;
79759;SDS011;69248;42.138;24.742;2023-04-25T05:00:02;12.47;;;9.43;;
79759;SDS011;69248;42.138;24.742;2023-04-25T05:02:37;13.95;;;10.45;;
79759;SDS011;69248;42.138;24.742;2023-04-25T05:05:05;13.72;;;11.60;;
79759;SDS011;69248;42.138;24.742;2023-04-25T05:07:33;12.53;;;11.22;;
79759;SDS011;69248;42.138;24.742;2023-04-25T05:10:01;11.60;;;9.28;;
79759;SDS011;69248;42.138;24.742;2023-04-25T05:12:29;16.15;;;11.90;;
79759;SDS011;69248;42.138;24.742;2023-04-25T05:14:57;16.85;;;11.25;;
79759;SDS011;69248;42.138;24.742;2023-04-25T05:17:24;13.62;;;11.05;;
79759;SDS011;69248;42.138;24.742;2023-04-25T05:19:52;16.60;;;11.83;;
79759;SDS011;69248;42.138;24.742;2023-04-25T05:22:19;18.50;;;10.50;;
79759;SDS011;69248;42.138;24.742;2023-04-25T05:24:47;21.93;;;12.88;;
79759;SDS011;69248;42.138;24.742;2023-04-25T05:27:16;21.20;;;13.60;;
79759;SDS011;69248;42.138;24.742;2023-04-25T05:29:44;20.60;;;12.80;;
79759;SDS011;69248;42.138;24.742;2023-04-25T05:32:12;18.45;;;12.73;;
79759;SDS011;69248;42.138;24.742;2023-04-25T05:34:41;13.43;;;10.88;;
79759;SDS011;69248;42.138;24.742;2023-04-25T05:37:09;24.25;;;14.80;;
79759;SDS011;69248;42.138;24.742;2023-04-25T05:39:36;15.23;;;11.12;;
79759;SDS011;69248;42.138;24.742;2023-04-25T05:42:04;24.67;;;12.65;;
79759;SDS011;69248;42.138;24.742;2023-04-25T05:44:31;19.27;;;11.90;;
79759;SDS011;69248;42.138;24.742;2023-04-25T05:46:59;16.15;;;9.38;;
79759;SDS011;69248;42.138;24.742;2023-04-25T05:49:26;17.73;;;10.08;;
79759;SDS011;69248;42.138;24.742;2023-04-25T05:51:54;15.10;;;9.88;;
79759;SDS011;69248;42.138;24.742;2023-04-25T05:54:22;15.72;;;9.90;;
79759;SDS011;69248;42.138;24.742;2023-04-25T05:56:50;17.02;;;9.93;;
79759;SDS011;69248;42.138;24.742;2023-04-25T05:59:17;17.23;;;12.63;;
79759;SDS011;69248;42.138;24.742;2023-04-25T06:01:45;18.65;;;11.25;;
79759;SDS011;69248;42.138;24.742;2023-04-25T06:04:13;21.93;;;10.63;;
79759;SDS011;69248;42.138;24.742;2023-04-25T06:06:40;14.13;;;11.97;;
79759;SDS011;69248;42.138;24.742;2023-04-25T06:09:08;13.53;;;9.40;;
79759;SDS011;69248;42.138;24.742;2023-04-25T06:11:35;15.98;;;9.73;;
79759;SDS011;69248;42.138;24.742;2023-04-25T06:14:03;12.70;;;10.32;;
79759;SDS011;69248;42.138;24.742;2023-04-25T06:16:31;11.30;;;7.97;;
79759;SDS011;69248;42.138;24.742;2023-04-25T06:18:58;14.50;;;7.83;;
79759;SDS011;69248;42.138;24.742;2023-04-25T06:21:26;22.52;;;9.38;;
79759;SDS011;69248;42.138;24.742;2023-04-25T06:23:53;13.68;;;9.95;;
79759;SDS011;69248;42.138;24.742;2023-04-25T06:26:21;11.97;;;9.03;;
79759;SDS011;69248;42.138;24.742;2023-04-25T06:28:49;25.68;;;11.12;;
79759;SDS011;69248;42.138;24.742;2023-04-25T06:31:16;12.55;;;8.35;;
79759;SDS011;69248;42.138;24.742;2023-04-25T06:33:44;9.90;;;7.70;;
79759;SDS011;69248;42.138;24.742;2023-04-25T06:36:11;19.52;;;9.00;;
79759;SDS011;69248;42.138;24.742;2023-04-25T06:38:39;10.88;;;7.37;;
79759;SDS011;69248;42.138;24.742;2023-04-25T06:41:06;12.98;;;8.65;;
79759;SDS011;69248;42.138;24.742;2023-04-25T06:43:34;20.30;;;11.38;;
79759;SDS011;69248;42.138;24.742;2023-04-25T06:46:01;16.07;;;8.20;;
79759;SDS011;69248;42.138;24.742;2023-04-25T06:48:29;18.17;;;10.72;;
79759;SDS011;69248;42.138;24.742;2023-04-25T06:50:57;15.45;;;10.08;;
79759;SDS011;69248;42.138;24.742;2023-04-25T06:53:24;17.67;;;10.40;;
79759;SDS011;69248;42.138;24.742;2023-04-25T06:55:52;20.97;;;12.10;;
79759;SDS011;69248;42.138;24.742;2023-04-25T06:58:19;16.52;;;11.03;;
79759;SDS011;69248;42.138;24.742;2023-04-25T07:00:47;16.02;;;11.88;;
79759;SDS011;69248;42.138;24.742;2023-04-25T07:03:14;27.10;;;13.98;;
79759;SDS011;69248;42.138;24.742;2023-04-25T07:05:52;15.75;;;10.85;;
79759;SDS011;69248;42.138;24.742;2023-04-25T07:08:28;27.25;;;13.10;;
79759;SDS011;69248;42.138;24.742;2023-04-25T07:11:05;30.08;;;12.82;;
79759;SDS011;69248;42.138;24.742;2023-04-25T07:13:29;25.40;;;11.50;;
79759;SDS011;69248;42.138;24.742;2023-04-25T07:15:56;14.23;;;9.80;;
79759;SDS011;69248;42.138;24.742;2023-04-25T07:18:24;18.95;;;11.05;;
79759;SDS011;69248;42.138;24.742;2023-04-25T07:20:51;12.55;;;11.15;;
79759;SDS011;69248;42.138;24.742;2023-04-25T07:23:19;16.00;;;12.35;;
79759;SDS011;69248;42.138;24.742;2023-04-25T07:25:47;15.10;;;11.22;;
79759;SDS011;69248;42.138;24.742;2023-04-25T07:28:14;18.92;;;9.90;;
79759;SDS011;69248;42.138;24.742;2023-04-25T07:30:42;17.77;;;11.43;;
79759;SDS011;69248;42.138;24.742;2023-04-25T07:33:10;17.90;;;11.60;;
79759;SDS011;69248;42.138;24.742;2023-04-25T07:35:37;18.90;;;11.88;;
79759;SDS011;69248;42.138;24.742;2023-04-25T07:38:05;20.02;;;11.78;;
79759;SDS011;69248;42.138;24.742;2023-04-25T07:40:33;16.23;;;10.93;;
79759;SDS011;69248;42.138;24.742;2023-04-25T07:43:01;16.52;;;8.45;;
79759;SDS011;69248;42.138;24.742;2023-04-25T07:45:31;18.25;;;11.10;;
79759;SDS011;69248;42.138;24.742;2023-04-25T07:47:59;16.65;;;9.60;;
79759;SDS011;69248;42.138;24.742;2023-04-25T07:50:26;25.43;;;9.53;;
79759;SDS011;69248;42.138;24.742;2023-04-25T07:52:54;12.95;;;7.80;;
79759;SDS011;69248;42.138;24.742;2023-04-25T07:55:21;15.55;;;7.37;;
79759;SDS011;69248;42.138;24.742;2023-04-25T07:57:49;11.53;;;8.33;;
79759;SDS011;69248;42.138;24.742;2023-04-25T08:00:17;12.85;;;7.95;;
79759;SDS011;69248;42.138;24.742;2023-04-25T08:02:44;15.93;;;9.70;;
79759;SDS011;69248;42.138;24.742;2023-04-25T08:05:12;11.60;;;6.97;;
79759;SDS011;69248;42.138;24.742;2023-04-25T08:07:40;15.25;;;7.85;;
79759;SDS011;69248;42.138;24.742;2023-04-25T08:10:09;12.07;;;8.03;;
79759;SDS011;69248;42.138;24.742;2023-04-25T08:12:36;10.32;;;7.15;;
79759;SDS011;69248;42.138;24.742;2023-04-25T08:15:04;10.45;;;6.05;;
79759;SDS011;69248;42.138;24.742;2023-04-25T08:17:32;11.80;;;6.83;;
79759;SDS011;69248;42.138;24.742;2023-04-25T08:20:00;14.68;;;6.22;;
79759;SDS011;69248;42.138;24.742;2023-04-25T08:22:29;9.35;;;6.35;;
79759;SDS011;69248;42.138;24.742;2023-04-25T08:24:57;5.55;;;4.92;;
79759;SDS011;69248;42.138;24.742;2023-04-25T08:27:25;12.80;;;6.40;;
79759;SDS011;69248;42.138;24.742;2023-04-25T08:29:52;9.10;;;6.00;;
79759;SDS011;69248;42.138;24.742;2023-04-25T08:32:20;9.30;;;5.10;;
79759;SDS011;69248;42.138;24.742;2023-04-25T08:34:48;6.92;;;4.50;;
79759;SDS011;69248;42.138;24.742;2023-04-25T08:37:16;4.55;;;2.65;;
79759;SDS011;69248;42.138;24.742;2023-04-25T08:39:45;3.20;;;2.80;;
79759;SDS011;69248;42.138;24.742;2023-04-25T08:42:14;4.12;;;3.00;;
79759;SDS011;69248;42.138;24.742;2023-04-25T08:44:42;3.65;;;2.72;;
79759;SDS011;69248;42.138;24.742;2023-04-25T08:47:10;4.05;;;2.60;;
79759;SDS011;69248;42.138;24.742;2023-04-25T08:49:40;6.08;;;3.10;;
79759;SDS011;69248;42.138;24.742;2023-04-25T08:52:11;5.90;;;3.60;;
79759;SDS011;69248;42.138;24.742;2023-04-25T08:54:43;3.83;;;3.33;;
79759;SDS011;69248;42.138;24.742;2023-04-25T08:57:13;5.53;;;4.15;;
79759;SDS011;69248;42.138;24.742;2023-04-25T08:59:42;6.15;;;3.83;;
79759;SDS011;69248;42.138;24.742;2023-04-25T09:02:11;3.92;;;3.15;;
79759;SDS011;69248;42.138;24.742;2023-04-25T09:04:42;6.35;;;4.15;;
79759;SDS011;69248;42.138;24.742;2023-04-25T09:07:10;5.80;;;3.92;;
79759;SDS011;69248;42.138;24.742;2023-04-25T09:09:40;6.62;;;3.90;;
79759;SDS011;69248;42.138;24.742;2023-04-25T09:12:07;5.58;;;3.87;;
79759;SDS011;69248;42.138;24.742;2023-04-25T09:14:36;6.28;;;3.37;;
79759;SDS011;69248;42.138;24.742;2023-04-25T09:17:04;4.62;;;3.40;;
79759;SDS011;69248;42.138;24.742;2023-04-25T09:19:36;4.42;;;3.60;;
79759;SDS011;69248;42.138;24.742;2023-04-25T09:22:07;7.17;;;4.35;;
79759;SDS011;69248;42.138;24.742;2023-04-25T09:24:40;8.33;;;4.85;;
79759;SDS011;69248;42.138;24.742;2023-04-25T09:27:10;7.70;;;4.58;;
79759;SDS011;69248;42.138;24.742;2023-04-25T09:29:40;4.92;;;3.95;;
79759;SDS011;69248;42.138;24.742;2023-04-25T09:32:11;6.78;;;4.17;;
79759;SDS011;69248;42.138;24.742;2023-04-25T09:34:41;7.12;;;3.87;;
79759;SDS011;69248;42.138;24.742;2023-04-25T09:37:10;4.85;;;3.58;;
79759;SDS011;69248;42.138;24.742;2023-04-25T09:39:38;5.97;;;5.12;;
79759;SDS011;69248;42.138;24.742;2023-04-25T09:42:06;5.05;;;4.37;;
79759;SDS011;69248;42.138;24.742;2023-04-25T09:44:35;6.30;;;4.33;;
79759;SDS011;69248;42.138;24.742;2023-04-25T09:47:03;6.65;;;5.65;;
79759;SDS011;69248;42.138;24.742;2023-04-25T09:49:32;5.62;;;4.12;;
79759;SDS011;69248;42.138;24.742;2023-04-25T09:52:00;5.05;;;4.47;;
79759;SDS011;69248;42.138;24.742;2023-04-25T09:54:27;5.42;;;4.72;;
79759;SDS011;69248;42.138;24.742;2023-04-25T09:56:55;5.90;;;5.30;;
79759;SDS011;69248;42.138;24.742;2023-04-25T09:59:23;7.08;;;5.53;;
79759;SDS011;69248;42.138;24.742;2023-04-25T10:01:51;7.95;;;4.58;;
79759;SDS011;69248;42.138;24.742;2023-04-25T10:04:26;4.58;;;4.00;;
79759;SDS011;69248;42.138;24.742;2023-04-25T10:06:53;5.20;;;3.70;;
79759;SDS011;69248;42.138;24.742;2023-04-25T10:09:24;5.67;;;3.75;;
79759;SDS011;69248;42.138;24.742;2023-04-25T10:11:54;6.97;;;5.28;;
79759;SDS011;69248;42.138;24.742;2023-04-25T10:14:22;5.28;;;4.72;;
79759;SDS011;69248;42.138;24.742;2023-04-25T10:16:51;5.75;;;3.83;;
79759;SDS011;69248;42.138;24.742;2023-04-25T10:19:20;9.23;;;6.67;;
79759;SDS011;69248;42.138;24.742;2023-04-25T10:21:50;6.30;;;4.53;;
79759;SDS011;69248;42.138;24.742;2023-04-25T10:24:37;7.12;;;4.05;;
79759;SDS011;69248;42.138;24.742;2023-04-25T10:27:06;10.55;;;7.60;;
79759;SDS011;69248;42.138;24.742;2023-04-25T10:29:35;4.83;;;3.17;;
79759;SDS011;69248;42.138;24.742;2023-04-25T10:32:03;3.17;;;2.83;;
79759;SDS011;69248;42.138;24.742;2023-04-25T10:34:37;5.53;;;3.80;;
79759;SDS011;69248;42.138;24.742;2023-04-25T10:37:11;5.60;;;3.52;;
79759;SDS011;69248;42.138;24.742;2023-04-25T10:39:40;6.75;;;3.22;;
79759;SDS011;69248;42.138;24.742;2023-04-25T10:42:08;6.03;;;2.52;;
79759;SDS011;69248;42.138;24.742;2023-04-25T10:44:39;3.58;;;2.72;;
79759;SDS011;69248;42.138;24.742;2023-04-25T10:47:07;3.95;;;2.90;;
79759;SDS011;69248;42.138;24.742;2023-04-25T10:49:36;6.85;;;4.45;;
79759;SDS011;69248;42.138;24.742;2023-04-25T10:52:24;5.60;;;2.50;;
79759;SDS011;69248;42.138;24.742;2023-04-25T10:54:53;7.47;;;2.80;;
79759;SDS011;69248;42.138;24.742;2023-04-25T11:03:09;3.67;;;2.60;;
79759;SDS011;69248;42.138;24.742;2023-04-25T11:05:29;3.25;;;2.85;;
79759;SDS011;69248;42.138;24.742;2023-04-25T11:07:58;4.08;;;3.00;;
79759;SDS011;69248;42.138;24.742;2023-04-25T11:10:27;16.65;;;2.75;;
79759;SDS011;69248;42.138;24.742;2023-04-25T11:13:00;3.33;;;1.95;;
79759;SDS011;69248;42.138;24.742;2023-04-25T11:15:28;5.03;;;3.00;;
79759;SDS011;69248;42.138;24.742;2023-04-25T11:17:56;4.87;;;3.37;;
79759;SDS011;69248;42.138;24.742;2023-04-25T11:20:25;4.53;;;2.40;;
79759;SDS011;69248;42.138;24.742;2023-04-25T11:22:54;4.47;;;2.40;;
79759;SDS011;69248;42.138;24.742;2023-04-25T11:25:25;5.12;;;2.20;;
79759;SDS011;69248;42.138;24.742;2023-04-25T11:27:53;8.50;;;4.20;;
79759;SDS011;69248;42.138;24.742;2023-04-25T11:30:24;6.03;;;3.60;;
79759;SDS011;69248;42.138;24.742;2023-04-25T11:32:54;6.10;;;4.67;;
79759;SDS011;69248;42.138;24.742;2023-04-25T11:35:22;5.95;;;3.33;;
79759;SDS011;69248;42.138;24.742;2023-04-25T11:37:51;3.30;;;3.00;;
79759;SDS011;69248;42.138;24.742;2023-04-25T11:40:19;11.73;;;4.33;;
79759;SDS011;69248;42.138;24.742;2023-04-25T11:42:47;5.03;;;3.47;;
79759;SDS011;69248;42.138;24.742;2023-04-25T11:45:15;9.80;;;3.77;;
79759;SDS011;69248;42.138;24.742;2023-04-25T11:47:44;6.75;;;3.55;;
79759;SDS011;69248;42.138;24.742;2023-04-25T11:50:12;5.78;;;3.80;;
79759;SDS011;69248;42.138;24.742;2023-04-25T11:52:44;10.15;;;5.95;;
79759;SDS011;69248;42.138;24.742;2023-04-25T11:55:13;6.95;;;3.52;;
79759;SDS011;69248;42.138;24.742;2023-04-25T11:57:42;9.53;;;3.62;;
79759;SDS011;69248;42.138;24.742;2023-04-25T12:00:16;5.92;;;2.90;;
79759;SDS011;69248;42.138;24.742;2023-04-25T12:02:42;3.45;;;3.10;;
79759;SDS011;69248;42.138;24.742;2023-04-25T12:05:12;12.43;;;3.98;;
79759;SDS011;69248;42.138;24.742;2023-04-25T12:07:46;10.20;;;3.58;;
79759;SDS011;69248;42.138;24.742;2023-04-25T12:10:16;6.75;;;3.42;;
79759;SDS011;69248;42.138;24.742;2023-04-25T12:12:45;7.90;;;4.78;;
79759;SDS011;69248;42.138;24.742;2023-04-25T12:17:48;4.22;;;3.37;;
79759;SDS011;69248;42.138;24.742;2023-04-25T12:20:23;14.10;;;4.62;;
79759;SDS011;69248;42.138;24.742;2023-04-25T12:22:47;6.50;;;3.55;;
79759;SDS011;69248;42.138;24.742;2023-04-25T12:28:11;7.67;;;3.50;;
79759;SDS011;69248;42.138;24.742;2023-04-25T12:30:56;4.30;;;2.85;;
79759;SDS011;69248;42.138;24.742;2023-04-25T12:33:26;3.83;;;3.40;;
79759;SDS011;69248;42.138;24.742;2023-04-25T12:35:55;5.28;;;3.17;;
79759;SDS011;69248;42.138;24.742;2023-04-25T12:38:24;4.97;;;3.37;;
79759;SDS011;69248;42.138;24.742;2023-04-25T12:40:52;5.67;;;3.12;;
79759;SDS011;69248;42.138;24.742;2023-04-25T12:43:21;5.53;;;2.80;;
79759;SDS011;69248;42.138;24.742;2023-04-25T12:45:49;3.72;;;2.60;;
79759;SDS011;69248;42.138;24.742;2023-04-25T12:48:17;6.30;;;2.90;;
79759;SDS011;69248;42.138;24.742;2023-04-25T12:50:46;6.67;;;3.35;;
79759;SDS011;69248;42.138;24.742;2023-04-25T12:53:20;3.15;;;2.70;;
79759;SDS011;69248;42.138;24.742;2023-04-25T12:55:50;8.15;;;3.58;;
79759;SDS011;69248;42.138;24.742;2023-04-25T12:58:18;7.90;;;4.72;;
79759;SDS011;69248;42.138;24.742;2023-04-25T13:00:47;6.60;;;3.33;;
79759;SDS011;69248;42.138;24.742;2023-04-25T13:03:14;7.53;;;4.45;;
79759;SDS011;69248;42.138;24.742;2023-04-25T13:05:42;5.75;;;3.20;;
79759;SDS011;69248;42.138;24.742;2023-04-25T13:08:09;9.15;;;3.92;;
79759;SDS011;69248;42.138;24.742;2023-04-25T13:10:37;3.67;;;2.70;;
79759;SDS011;69248;42.138;24.742;2023-04-25T13:13:04;4.17;;;3.00;;
79759;SDS011;69248;42.138;24.742;2023-04-25T13:15:32;7.35;;;5.60;;
79759;SDS011;69248;42.138;24.742;2023-04-25T13:17:59;4.83;;;2.20;;
79759;SDS011;69248;42.138;24.742;2023-04-25T13:20:27;7.12;;;2.15;;
79759;SDS011;69248;42.138;24.742;2023-04-25T13:22:55;9.40;;;3.52;;
79759;SDS011;69248;42.138;24.742;2023-04-25T13:25:22;4.53;;;1.90;;
79759;SDS011;69248;42.138;24.742;2023-04-25T13:27:50;2.70;;;1.98;;
79759;SDS011;69248;42.138;24.742;2023-04-25T13:30:18;3.10;;;2.20;;
79759;SDS011;69248;42.138;24.742;2023-04-25T13:32:48;3.42;;;2.10;;
79759;SDS011;69248;42.138;24.742;2023-04-25T13:35:16;8.93;;;2.45;;
79759;SDS011;69248;42.138;24.742;2023-04-25T13:37:44;1.40;;;1.30;;
79759;SDS011;69248;42.138;24.742;2023-04-25T13:40:11;1.85;;;1.32;;
79759;SDS011;69248;42.138;24.742;2023-04-25T13:42:39;5.67;;;1.42;;
79759;SDS011;69248;42.138;24.742;2023-04-25T13:45:07;3.95;;;1.90;;
79759;SDS011;69248;42.138;24.742;2023-04-25T13:47:36;5.10;;;2.40;;
79759;SDS011;69248;42.138;24.742;2023-04-25T13:50:03;5.40;;;2.60;;
79759;SDS011;69248;42.138;24.742;2023-04-25T13:52:33;2.70;;;2.10;;
79759;SDS011;69248;42.138;24.742;2023-04-25T13:55:00;2.65;;;2.27;;
79759;SDS011;69248;42.138;24.742;2023-04-25T13:57:33;4.67;;;2.80;;
79759;SDS011;69248;42.138;24.742;2023-04-25T14:00:01;2.20;;;2.10;;
79759;SDS011;69248;42.138;24.742;2023-04-25T14:02:34;1.80;;;1.55;;
79759;SDS011;69248;42.138;24.742;2023-04-25T14:05:02;2.25;;;1.30;;
79759;SDS011;69248;42.138;24.742;2023-04-25T14:07:31;3.17;;;1.85;;
79759;SDS011;69248;42.138;24.742;2023-04-25T14:10:00;3.52;;;1.70;;
79759;SDS011;69248;42.138;24.742;2023-04-25T14:12:28;3.30;;;1.90;;
79759;SDS011;69248;42.138;24.742;2023-04-25T14:14:56;3.42;;;1.50;;
79759;SDS011;69248;42.138;24.742;2023-04-25T14:17:23;5.40;;;2.33;;
79759;SDS011;69248;42.138;24.742;2023-04-25T14:19:51;4.40;;;2.87;;
79759;SDS011;69248;42.138;24.742;2023-04-25T14:22:19;2.40;;;1.35;;
79759;SDS011;69248;42.138;24.742;2023-04-25T14:24:46;4.40;;;1.98;;
79759;SDS011;69248;42.138;24.742;2023-04-25T14:27:14;1.55;;;1.45;;
79759;SDS011;69248;42.138;24.742;2023-04-25T14:29:41;4.12;;;1.50;;
79759;SDS011;69248;42.138;24.742;2023-04-25T14:32:09;4.35;;;1.80;;
79759;SDS011;69248;42.138;24.742;2023-04-25T14:34:37;3.27;;;2.00;;
79759;SDS011;69248;42.138;24.742;2023-04-25T14:37:06;4.42;;;1.98;;
79759;SDS011;69248;42.138;24.742;2023-04-25T14:39:33;1.95;;;1.30;;
79759;SDS011;69248;42.138;24.742;2023-04-25T14:42:02;1.52;;;1.40;;
79759;SDS011;69248;42.138;24.742;2023-04-25T14:44:30;2.77;;;1.40;;
79759;SDS011;69248;42.138;24.742;2023-04-25T14:46:57;9.23;;;1.37;;